createdAt,value
2018-01-05T00:01:31.865Z,2.50
2018-01-05T00:03:59.604Z,2.40
2018-01-05T00:06:27.203Z,2.40
2018-01-05T00:08:54.793Z,2.30
2018-01-05T00:11:23.410Z,1.90
2018-01-05T00:13:51.022Z,1.20
2018-01-05T00:16:19.633Z,2.27
2018-01-05T00:18:47.402Z,1.73
2018-01-05T00:21:15.554Z,1.80
2018-01-05T00:23:43.379Z,2.80
2018-01-05T00:26:11.211Z,1.90
2018-01-05T00:28:39.060Z,1.70
2018-01-05T00:31:06.679Z,2.13
2018-01-05T00:33:34.793Z,2.60
2018-01-05T00:36:02.589Z,2.30
2018-01-05T00:38:31.146Z,2.00
2018-01-05T00:40:59.293Z,3.20
2018-01-05T00:43:27.556Z,1.87
2018-01-05T00:45:56.492Z,2.30
2018-01-05T00:48:24.403Z,2.20
2018-01-05T00:50:52.330Z,3.13
2018-01-05T00:53:21.243Z,2.50
2018-01-05T00:55:49.907Z,2.03
2018-01-05T00:58:17.593Z,1.97
2018-01-05T01:00:46.263Z,2.17
2018-01-05T01:03:15.756Z,3.63
2018-01-05T01:05:43.622Z,2.27
2018-01-05T01:08:11.993Z,3.70
2018-01-05T01:10:40.175Z,2.77
2018-01-05T01:13:07.755Z,2.80
2018-01-05T01:15:36.876Z,2.60
2018-01-05T01:18:04.611Z,2.37
2018-01-05T01:20:32.261Z,2.13
2018-01-05T01:23:00.617Z,3.30
2018-01-05T01:25:28.412Z,1.93
2018-01-05T01:27:55.965Z,3.40
2018-01-05T01:30:24.264Z,3.00
2018-01-05T01:32:52.261Z,2.27
2018-01-05T01:35:21.111Z,2.83
2018-01-05T01:37:48.790Z,2.30
2018-01-05T01:40:17.244Z,2.67
2018-01-05T01:42:44.916Z,2.97
2018-01-05T01:45:12.478Z,3.20
2018-01-05T01:47:40.593Z,2.00
2018-01-05T01:50:08.219Z,3.33
2018-01-05T01:52:36.110Z,2.50
2018-01-05T01:55:04.257Z,3.87
2018-01-05T01:57:32.941Z,2.70
2018-01-05T02:00:00.786Z,2.30
2018-01-05T02:02:28.490Z,2.93
2018-01-05T02:04:56.340Z,2.17
2018-01-05T02:07:24.815Z,2.20
2018-01-05T02:09:52.919Z,2.47
2018-01-05T02:12:20.808Z,2.43
2018-01-05T02:14:49.683Z,2.53
2018-01-05T02:17:17.312Z,2.63
2018-01-05T02:19:44.909Z,3.57
2018-01-05T02:22:12.545Z,2.10
2018-01-05T02:24:40.321Z,3.50
2018-01-05T02:27:07.880Z,3.00
2018-01-05T02:29:35.859Z,2.27
2018-01-05T02:32:04.276Z,2.60
2018-01-05T02:34:32.074Z,2.77
2018-01-05T02:37:00.569Z,2.40
2018-01-05T02:39:28.235Z,2.30
2018-01-05T02:41:55.854Z,2.63
2018-01-05T02:59:46.504Z,2.97
2018-01-05T03:02:15.183Z,2.47
2018-01-05T03:04:44.483Z,2.73
2018-01-05T03:07:12.140Z,2.57
2018-01-05T03:09:39.679Z,3.20
2018-01-05T03:12:07.232Z,3.40
2018-01-05T03:14:35.169Z,2.40
2018-01-05T03:17:04.253Z,2.33
2018-01-05T03:19:32.106Z,2.90
2018-01-05T03:22:00.165Z,2.17
2018-01-05T03:24:29.977Z,3.40
2018-01-05T03:26:57.557Z,2.30
2018-01-05T03:29:39.106Z,2.70
2018-01-05T03:32:06.789Z,3.67
2018-01-05T03:34:34.511Z,3.27
2018-01-05T03:37:02.871Z,1.80
2018-01-05T03:39:30.831Z,2.27
2018-01-05T03:41:58.881Z,2.30
2018-01-05T03:44:26.436Z,2.50
2018-01-05T03:46:54.406Z,2.00
2018-01-05T03:49:23.459Z,2.77
2018-01-05T03:51:51.174Z,3.00
2018-01-05T03:54:19.530Z,3.43
2018-01-05T03:56:48.090Z,3.07
2018-01-05T03:59:15.792Z,2.20
2018-01-05T04:01:44.452Z,2.70
2018-01-05T04:04:12.013Z,2.30
2018-01-05T04:06:39.810Z,2.20
2018-01-05T04:09:08.701Z,2.10
2018-01-05T04:11:37.715Z,2.00
2018-01-05T04:14:05.297Z,2.53
2018-01-05T04:16:33.615Z,1.47
2018-01-05T04:19:01.736Z,2.60
2018-01-05T04:21:29.972Z,1.60
2018-01-05T04:23:57.997Z,2.37
2018-01-05T04:26:26.375Z,2.47
2018-01-05T04:28:53.978Z,2.47
2018-01-05T04:31:21.777Z,2.47
2018-01-05T04:33:50.841Z,1.93
2018-01-05T04:36:18.729Z,3.27
2018-01-05T04:38:46.367Z,1.93
2018-01-05T04:41:13.959Z,2.50
2018-01-05T04:43:41.725Z,3.00
2018-01-05T04:46:10.083Z,2.20
2018-01-05T04:48:37.880Z,4.87
2018-01-05T04:51:05.853Z,2.33
2018-01-05T04:53:33.384Z,2.63
2018-01-05T04:56:01.557Z,2.60
2018-01-05T04:58:29.330Z,4.50
2018-01-05T05:00:57.198Z,1.97
2018-01-05T05:03:26.217Z,2.00
2018-01-05T05:05:54.642Z,2.70
2018-01-05T05:08:22.309Z,1.97
2018-01-05T05:10:50.105Z,2.20
2018-01-05T05:13:17.798Z,5.20
2018-01-05T05:15:45.531Z,2.20
2018-01-05T05:33:35.935Z,1.60
2018-01-05T05:36:03.793Z,4.47
2018-01-05T05:38:32.083Z,3.57
2018-01-05T05:41:00.066Z,2.80
2018-01-05T05:43:28.475Z,2.30
2018-01-05T05:45:57.022Z,2.97
2018-01-05T05:48:24.760Z,2.33
2018-01-05T05:50:52.445Z,2.47
2018-01-05T05:53:22.865Z,2.80
2018-01-05T05:55:51.071Z,3.10
2018-01-05T05:58:18.800Z,1.27
2018-01-05T06:00:47.692Z,3.60
2018-01-05T06:03:15.392Z,2.50
2018-01-05T06:05:43.413Z,2.57
2018-01-05T06:08:11.439Z,2.33
2018-01-05T06:10:39.577Z,2.30
2018-01-05T06:13:07.435Z,2.70
2018-01-05T06:15:36.054Z,2.13
2018-01-05T06:18:03.657Z,2.37
2018-01-05T06:20:35.027Z,2.10
2018-01-05T06:23:03.126Z,2.80
2018-01-05T06:25:31.593Z,2.97
2018-01-05T06:27:59.482Z,2.30
2018-01-05T06:30:28.554Z,1.93
2018-01-05T06:32:56.405Z,2.40
2018-01-05T06:35:24.456Z,2.30
2018-01-05T06:37:53.835Z,2.50
2018-01-05T06:40:21.446Z,3.07
2018-01-05T06:42:48.976Z,1.77
2018-01-05T06:45:16.683Z,2.53
2018-01-05T06:47:45.060Z,2.63
2018-01-05T06:50:12.740Z,2.83
2018-01-05T06:52:40.455Z,1.93
2018-01-05T06:55:08.379Z,1.80
2018-01-05T06:57:35.936Z,2.10
2018-01-05T07:00:03.683Z,1.40
2018-01-05T07:02:33.558Z,2.43
2018-01-05T07:05:02.246Z,3.57
2018-01-05T07:07:30.354Z,1.90
2018-01-05T07:09:58.041Z,2.53
2018-01-05T07:12:26.417Z,2.07
2018-01-05T07:14:54.531Z,2.27
2018-01-05T07:17:23.464Z,1.67
2018-01-05T07:19:51.549Z,1.93
2018-01-05T07:22:19.506Z,2.93
2018-01-05T07:24:47.834Z,2.00
2018-01-05T07:27:15.538Z,1.70
2018-01-05T07:29:43.150Z,2.57
2018-01-05T07:32:10.992Z,2.93
2018-01-05T07:34:39.557Z,2.10
2018-01-05T07:37:07.335Z,1.63
2018-01-05T07:39:35.112Z,1.90
2018-01-05T07:42:02.706Z,3.00
2018-01-05T07:44:30.414Z,2.40
2018-01-05T07:46:58.024Z,1.67
2018-01-05T07:49:26.098Z,2.93
2018-01-05T07:51:54.435Z,1.40
2018-01-05T07:54:22.140Z,1.70
2018-01-05T07:56:50.460Z,1.50
2018-01-05T07:59:18.264Z,1.90
2018-01-05T08:01:47.257Z,2.10
2018-01-05T08:04:15.947Z,2.00
2018-01-05T08:06:44.640Z,2.13
2018-01-05T08:09:13.615Z,2.30
2018-01-05T08:11:41.816Z,2.10
2018-01-05T08:14:10.790Z,2.13
2018-01-05T08:16:41.008Z,2.10
2018-01-05T08:19:10.301Z,2.07
2018-01-05T08:21:39.588Z,1.73
2018-01-05T08:24:09.514Z,1.87
2018-01-05T08:26:39.480Z,2.37
2018-01-05T08:29:08.620Z,2.43
2018-01-05T08:31:37.568Z,2.23
2018-01-05T09:08:34.560Z,1.50
2018-01-05T09:11:03.548Z,1.67
2018-01-05T09:13:32.510Z,1.77
2018-01-05T09:16:01.480Z,1.30
2018-01-05T09:18:30.378Z,1.40
2018-01-05T09:20:59.273Z,1.40
2018-01-05T09:23:28.509Z,1.60
2018-01-05T09:25:57.463Z,1.47
2018-01-05T09:28:26.473Z,1.90
2018-01-05T09:30:55.787Z,1.33
2018-01-05T09:33:24.709Z,1.70
2018-01-05T09:35:53.596Z,1.80
2018-01-05T09:38:22.974Z,1.30
2018-01-05T09:40:51.878Z,1.17
2018-01-05T09:43:20.782Z,1.60
2018-01-05T09:45:50.500Z,1.23
2018-01-05T09:48:19.454Z,2.50
2018-01-05T09:50:48.360Z,1.07
2018-01-05T09:53:17.644Z,1.70
2018-01-05T09:55:46.548Z,2.10
2018-01-05T09:58:15.559Z,2.43
2018-01-05T10:00:45.519Z,1.67
2018-01-05T10:03:14.413Z,1.20
2018-01-05T10:05:44.260Z,1.93
2018-01-05T10:08:12.405Z,1.60
2018-01-05T10:10:41.211Z,1.20
2018-01-05T10:13:09.038Z,3.33
2018-01-05T10:15:36.605Z,1.50
2018-01-05T10:18:04.257Z,1.80
2018-01-05T10:20:31.827Z,1.10
2018-01-05T10:22:59.491Z,2.03
2018-01-05T10:25:27.067Z,1.60
2018-01-05T10:27:54.731Z,1.27
2018-01-05T10:30:22.426Z,1.70
2018-01-05T10:32:49.976Z,3.73
2018-01-05T10:35:17.640Z,1.50
2018-01-05T10:37:46.407Z,1.40
2018-01-05T10:40:14.004Z,1.20
2018-01-05T10:42:42.171Z,1.50
2018-01-05T10:45:09.941Z,1.70
2018-01-05T10:47:37.796Z,1.40
2018-01-05T10:50:06.864Z,1.30
2018-01-05T10:52:34.645Z,1.47
2018-01-05T10:55:02.523Z,3.73
2018-01-05T10:57:30.152Z,1.97
2018-01-05T10:59:57.973Z,1.33
2018-01-05T11:02:25.520Z,1.50
2018-01-05T11:04:53.817Z,1.17
2018-01-05T11:07:22.463Z,1.33
2018-01-05T11:09:50.117Z,1.37
2018-01-05T11:12:17.968Z,1.67
2018-01-05T11:14:47.115Z,1.37
2018-01-05T11:17:15.451Z,1.60
2018-01-05T11:19:43.447Z,1.60
2018-01-05T11:22:12.340Z,1.33
2018-01-05T11:24:41.014Z,1.70
2018-01-05T11:27:08.889Z,1.50
2018-01-05T11:29:37.520Z,1.03
2018-01-05T11:32:05.084Z,1.10
2018-01-05T11:34:33.394Z,1.00
2018-01-05T11:37:01.568Z,1.27
2018-01-05T11:39:29.173Z,2.43
2018-01-05T11:41:56.856Z,1.40
2018-01-05T11:44:24.803Z,1.53
2018-01-05T11:46:52.444Z,1.90
2018-01-05T11:49:20.124Z,1.73
2018-01-05T11:51:48.558Z,1.30
2018-01-05T11:54:16.155Z,1.50
2018-01-05T11:56:43.765Z,1.10
2018-01-05T11:59:12.077Z,1.03
2018-01-05T12:01:39.791Z,1.43
2018-01-05T12:04:08.144Z,1.73
2018-01-05T12:06:35.859Z,1.30
2018-01-05T12:09:03.553Z,1.77
2018-01-05T12:11:31.171Z,1.20
2018-01-05T12:13:59.944Z,1.20
2018-01-05T12:16:27.608Z,1.50
2018-01-05T12:18:55.205Z,1.20
2018-01-05T12:21:23.227Z,1.87
2018-01-05T12:23:50.958Z,1.20
2018-01-05T12:26:20.099Z,1.90
2018-01-05T12:28:48.556Z,1.10
2018-01-05T12:31:16.258Z,1.50
2018-01-05T12:33:45.425Z,1.80
2018-01-05T12:36:13.460Z,1.47
2018-01-05T12:38:41.152Z,1.17
2018-01-05T12:41:08.742Z,2.60
2018-01-05T12:43:37.752Z,1.50
2018-01-05T12:46:05.498Z,1.27
2018-01-05T12:48:33.151Z,1.40
2018-01-05T12:51:01.144Z,1.37
2018-01-05T12:53:29.880Z,2.10
2018-01-05T12:55:57.447Z,1.80
2018-01-05T12:58:25.047Z,1.40
2018-01-05T13:00:53.480Z,1.00
2018-01-05T13:03:21.103Z,1.10
2018-01-05T13:05:48.674Z,1.30
2018-01-05T13:08:16.300Z,1.23
2018-01-05T13:10:43.858Z,1.53
2018-01-05T13:13:11.545Z,1.13
2018-01-05T13:15:39.309Z,1.23
2018-01-05T13:18:07.365Z,1.50
2018-01-05T13:20:35.413Z,1.53
2018-01-05T13:23:03.144Z,1.40
2018-01-05T13:25:30.847Z,1.97
2018-01-05T13:27:58.499Z,1.70
2018-01-05T13:30:26.154Z,1.30
2018-01-05T13:32:53.994Z,1.60
2018-01-05T13:35:21.746Z,1.67
2018-01-05T13:37:49.289Z,1.40
2018-01-05T13:40:17.293Z,1.70
2018-01-05T13:42:45.697Z,1.50
2018-01-05T13:45:13.258Z,1.73
2018-01-05T13:47:41.221Z,2.10
2018-01-05T13:50:10.393Z,1.60
2018-01-05T13:52:37.985Z,1.97
2018-01-05T13:55:06.476Z,1.60
2018-01-05T13:57:34.447Z,2.20
2018-01-05T14:00:02.321Z,1.90
2018-01-05T14:02:30.576Z,1.20
2018-01-05T14:04:58.859Z,1.40
2018-01-05T14:07:27.082Z,1.73
2018-01-05T14:09:56.549Z,1.90
2018-01-05T14:12:24.254Z,2.63
2018-01-05T14:14:51.862Z,1.87
2018-01-05T14:17:21.509Z,1.47
2018-01-05T14:19:51.128Z,1.80
2018-01-05T14:22:18.857Z,2.07
2018-01-05T14:24:46.562Z,1.73
2018-01-05T14:27:14.682Z,1.47
2018-01-05T14:29:42.951Z,1.83
2018-01-05T14:32:10.550Z,2.00
2018-01-05T14:34:38.360Z,1.83
2018-01-05T14:37:06.750Z,2.50
2018-01-05T14:39:34.412Z,1.90
2018-01-05T14:42:02.111Z,1.70
2018-01-05T14:44:29.957Z,2.10
2018-01-05T14:46:57.620Z,2.10
2018-01-05T14:49:25.921Z,8.80
2018-01-05T14:51:53.542Z,1.97
2018-01-05T14:54:21.171Z,2.10
2018-01-05T14:56:48.813Z,1.87
2018-01-05T14:59:16.493Z,1.80
2018-01-05T15:01:45.477Z,3.00
2018-01-05T15:04:13.994Z,6.37
2018-01-05T15:06:41.551Z,2.50
2018-01-05T15:09:10.814Z,2.87
2018-01-05T15:11:39.262Z,2.00
2018-01-05T15:14:06.829Z,2.20
2018-01-05T15:16:34.704Z,2.60
2018-01-05T15:19:03.315Z,2.20
2018-01-05T15:21:31.803Z,3.13
2018-01-05T15:23:59.846Z,3.50
2018-01-05T15:26:27.626Z,2.63
2018-01-05T15:28:55.936Z,2.70
2018-01-05T15:31:25.505Z,2.97
2018-01-05T15:33:54.170Z,2.93
2018-01-05T15:36:21.724Z,2.60
2018-01-05T15:38:49.601Z,2.80
2018-01-05T15:41:17.684Z,4.40
2018-01-05T15:43:45.719Z,3.03
2018-01-05T15:46:13.868Z,3.30
2018-01-05T15:48:42.634Z,3.67
2018-01-05T15:51:10.720Z,3.47
2018-01-05T15:53:38.568Z,3.27
2018-01-05T15:56:06.260Z,3.77
2018-01-05T15:58:35.327Z,4.90
2018-01-05T16:01:03.721Z,3.33
2018-01-05T16:03:32.255Z,3.10
2018-01-05T16:06:01.885Z,3.20
2018-01-05T16:08:29.775Z,3.60
2018-01-05T16:10:58.374Z,3.30
2018-01-05T16:13:25.957Z,3.23
2018-01-05T16:15:55.202Z,3.23
2018-01-05T16:18:23.701Z,2.97
2018-01-05T16:20:52.539Z,2.90
2018-01-05T16:23:20.888Z,3.00
2018-01-05T16:25:48.923Z,3.33
2018-01-05T16:28:16.465Z,2.60
2018-01-05T16:30:44.146Z,3.20
2018-01-05T16:33:12.492Z,4.00
2018-01-05T16:35:40.308Z,3.77
2018-01-05T16:38:07.937Z,3.50
2018-01-05T16:40:35.727Z,3.43
2018-01-05T16:43:04.480Z,4.77
2018-01-05T16:45:32.380Z,4.23
2018-01-05T16:48:00.904Z,3.90
2018-01-05T16:50:28.569Z,3.43
2018-01-05T16:52:56.206Z,4.50
2018-01-05T16:55:25.287Z,3.00
2018-01-05T16:57:53.567Z,4.00
2018-01-05T17:00:21.760Z,4.23
2018-01-05T17:02:49.913Z,3.63
2018-01-05T17:05:17.677Z,3.70
2018-01-05T17:07:45.641Z,3.87
2018-01-05T17:10:13.724Z,3.90
2018-01-05T17:12:42.632Z,3.87
2018-01-05T17:15:11.295Z,4.53
2018-01-05T17:17:40.576Z,3.83
2018-01-05T17:20:09.288Z,4.60
2018-01-05T17:22:37.996Z,3.67
2018-01-05T17:25:08.148Z,3.43
2018-01-05T17:27:35.724Z,3.60
2018-01-05T17:30:03.726Z,4.30
2018-01-05T17:32:32.641Z,4.27
2018-01-05T17:35:01.270Z,4.80
2018-01-05T17:37:29.060Z,4.33
2018-01-05T17:39:56.720Z,4.30
2018-01-05T17:42:24.271Z,5.00
2018-01-05T17:44:51.847Z,4.93
2018-01-05T17:47:19.905Z,5.13
2018-01-05T17:49:47.550Z,5.90
2018-01-05T17:52:15.183Z,5.40
2018-01-05T17:54:43.118Z,7.20
2018-01-05T17:57:11.443Z,6.40
2018-01-05T17:59:39.966Z,6.30
2018-01-05T18:02:09.689Z,4.20
2018-01-05T18:04:37.325Z,4.57
2018-01-05T18:07:05.074Z,4.77
2018-01-05T18:09:33.026Z,4.60
2018-01-05T18:12:01.259Z,5.10
2018-01-05T18:14:28.935Z,5.17
2018-01-05T18:16:56.772Z,5.03
2018-01-05T18:19:24.456Z,5.50
2018-01-05T18:21:52.074Z,5.90
2018-01-05T18:24:20.146Z,4.60
2018-01-05T18:26:48.718Z,3.70
2018-01-05T18:29:16.312Z,5.07
2018-01-05T18:31:43.897Z,4.47
2018-01-05T18:34:12.189Z,3.90
2018-01-05T18:36:40.755Z,3.87
2018-01-05T18:39:08.892Z,3.50
2018-01-05T18:41:36.474Z,3.03
2018-01-05T18:44:04.211Z,3.90
2018-01-05T18:46:33.525Z,3.10
2018-01-05T18:49:02.012Z,3.87
2018-01-05T18:51:29.703Z,4.00
2018-01-05T18:53:57.711Z,3.10
2018-01-05T18:56:26.343Z,3.50
2018-01-05T18:58:53.868Z,3.70
2018-01-05T19:01:24.452Z,3.20
2018-01-05T19:03:52.248Z,3.23
2018-01-05T19:06:20.699Z,3.40
2018-01-05T19:08:48.386Z,3.70
2018-01-05T19:11:16.935Z,3.57
2018-01-05T19:13:44.738Z,4.07
2018-01-05T19:16:13.671Z,3.10
2018-01-05T19:18:41.310Z,3.10
2018-01-05T19:21:09.880Z,2.37
2018-01-05T19:23:37.796Z,3.80
2018-01-05T19:26:05.737Z,3.43
2018-01-05T19:28:33.615Z,3.63
2018-01-05T19:31:01.612Z,4.23
2018-01-05T19:33:29.254Z,5.43
2018-01-05T19:35:56.808Z,4.23
2018-01-05T19:38:24.614Z,3.63
2018-01-05T19:40:52.224Z,5.00
2018-01-05T19:43:19.947Z,4.87
2018-01-05T19:45:47.691Z,5.90
2018-01-05T19:48:15.255Z,5.30
2018-01-05T19:50:43.687Z,4.90
2018-01-05T19:53:13.175Z,3.67
2018-01-05T19:55:41.707Z,3.30
2018-01-05T19:58:09.449Z,3.70
2018-01-05T20:00:37.368Z,3.50
2018-01-05T20:03:05.166Z,4.20
2018-01-05T20:05:34.033Z,5.10
2018-01-05T20:08:02.171Z,4.40
2018-01-05T20:10:29.900Z,5.20
2018-01-05T20:12:57.565Z,6.37
2018-01-05T20:15:26.097Z,6.60
2018-01-05T20:17:54.029Z,7.00
2018-01-05T20:20:22.367Z,5.90
2018-01-05T20:22:49.953Z,7.07
2018-01-05T20:25:20.029Z,6.87
2018-01-05T20:27:49.130Z,6.67
2018-01-05T20:30:18.648Z,7.03
2018-01-05T20:32:46.488Z,6.73
2018-01-05T20:35:15.428Z,6.90
2018-01-05T20:37:44.089Z,7.40
2018-01-05T20:40:12.523Z,7.13
2018-01-05T20:42:40.551Z,7.00
2018-01-05T20:45:08.926Z,7.33
2018-01-05T20:47:37.006Z,7.70
2018-01-05T20:50:05.402Z,8.07
2018-01-05T20:52:33.288Z,8.33
2018-01-05T20:55:01.155Z,6.67
2018-01-05T20:57:28.770Z,6.80
2018-01-05T20:59:56.747Z,15.37
2018-01-05T21:02:25.610Z,8.53
2018-01-05T21:04:53.672Z,7.90
2018-01-05T21:07:22.557Z,8.50
2018-01-05T21:09:50.609Z,9.70
2018-01-05T21:12:19.349Z,12.37
2018-01-05T21:14:47.402Z,8.03
2018-01-05T21:17:15.276Z,7.23
2018-01-05T21:19:44.282Z,8.03
2018-01-05T21:22:13.490Z,7.70
2018-01-05T21:24:41.367Z,10.17
2018-01-05T21:27:09.151Z,8.13
2018-01-05T21:29:37.919Z,12.37
2018-01-05T21:32:05.898Z,10.67
2018-01-05T21:34:34.506Z,11.20
2018-01-05T21:37:02.342Z,10.07
2018-01-05T21:39:30.138Z,9.60
2018-01-05T21:41:57.955Z,8.27
2018-01-05T21:44:26.350Z,7.43
2018-01-05T21:46:54.380Z,9.00
2018-01-05T21:49:22.985Z,8.33
2018-01-05T21:51:50.702Z,8.30
2018-01-05T21:54:18.497Z,7.57
2018-01-05T21:56:46.470Z,7.17
2018-01-05T21:59:15.302Z,7.00
2018-01-05T22:01:42.973Z,7.30
2018-01-05T22:04:11.340Z,5.17
2018-01-05T22:06:39.139Z,9.20
2018-01-05T22:09:07.588Z,7.13
2018-01-05T22:11:35.347Z,6.37
2018-01-05T22:14:03.065Z,8.10
2018-01-05T22:16:32.215Z,6.63
2018-01-05T22:19:00.079Z,6.40
2018-01-05T22:21:27.660Z,5.43
2018-01-05T22:23:55.201Z,5.43
2018-01-05T22:26:22.893Z,4.83
2018-01-05T22:28:51.380Z,7.10
2018-01-05T22:31:20.454Z,5.40
2018-01-05T22:33:49.904Z,5.00
2018-01-05T22:36:18.913Z,5.10
2018-01-05T22:38:47.849Z,4.43
2018-01-05T22:41:17.105Z,4.70
2018-01-05T22:43:48.677Z,4.00
2018-01-05T22:46:17.895Z,4.60
2018-01-05T22:48:46.973Z,6.87
2018-01-05T22:51:16.294Z,6.20
2018-01-05T22:53:45.188Z,4.43
2018-01-05T22:56:14.234Z,4.50
2018-01-05T22:58:43.418Z,4.87
2018-01-05T23:01:12.509Z,5.00
2018-01-05T23:03:41.430Z,5.43
2018-01-05T23:06:10.441Z,4.80
2018-01-05T23:08:39.650Z,5.27
2018-01-05T23:11:08.539Z,4.30
2018-01-05T23:13:37.615Z,4.87
2018-01-05T23:16:06.551Z,5.00
2018-01-05T23:18:36.942Z,5.80
2018-01-05T23:21:06.224Z,5.67
2018-01-05T23:23:36.362Z,5.10
2018-01-05T23:26:05.311Z,4.83
2018-01-05T23:28:34.625Z,5.10
2018-01-05T23:31:04.253Z,4.90
2018-01-05T23:33:33.460Z,4.60
2018-01-05T23:36:02.706Z,5.80
2018-01-05T23:38:32.114Z,4.87
2018-01-05T23:40:59.779Z,5.10
2018-01-05T23:43:27.391Z,4.97
2018-01-05T23:45:55.067Z,4.67
2018-01-05T23:48:22.703Z,5.33
2018-01-05T23:50:50.347Z,4.50
2018-01-05T23:53:17.958Z,4.70
2018-01-05T23:55:45.534Z,6.37
2018-01-05T23:58:13.128Z,5.93
